sensor_id;sensor_type;location;lat;lon;timestamp;P1;durP1;ratioP1;P2;durP2;ratioP2
17283;SDS011;8760;52.248;20.952;2023-04-07T00:01:20;19.40;;;12.63;;
17283;SDS011;8760;52.248;20.952;2023-04-07T00:03:47;17.87;;;12.53;;
17283;SDS011;8760;52.248;20.952;2023-04-07T00:06:15;17.83;;;12.13;;
17283;SDS011;8760;52.248;20.952;2023-04-07T00:08:42;18.93;;;12.77;;
17283;SDS011;8760;52.248;20.952;2023-04-07T00:11:09;18.00;;;12.57;;
17283;SDS011;8760;52.248;20.952;2023-04-07T00:13:36;17.67;;;12.37;;
17283;SDS011;8760;52.248;20.952;2023-04-07T00:16:03;18.03;;;12.67;;
17283;SDS011;8760;52.248;20.952;2023-04-07T00:18:30;21.90;;;13.73;;
17283;SDS011;8760;52.248;20.952;2023-04-07T00:21:00;20.73;;;13.10;;
17283;SDS011;8760;52.248;20.952;2023-04-07T00:23:28;20.07;;;13.40;;
17283;SDS011;8760;52.248;20.952;2023-04-07T00:25:55;22.03;;;14.40;;
17283;SDS011;8760;52.248;20.952;2023-04-07T00:28:22;21.40;;;13.90;;
17283;SDS011;8760;52.248;20.952;2023-04-07T00:30:49;24.30;;;14.30;;
17283;SDS011;8760;52.248;20.952;2023-04-07T00:33:16;20.10;;;13.70;;
17283;SDS011;8760;52.248;20.952;2023-04-07T00:35:43;21.53;;;13.93;;
17283;SDS011;8760;52.248;20.952;2023-04-07T00:38:10;22.53;;;14.30;;
17283;SDS011;8760;52.248;20.952;2023-04-07T00:40:38;20.40;;;14.10;;
17283;SDS011;8760;52.248;20.952;2023-04-07T00:43:05;22.67;;;14.87;;
17283;SDS011;8760;52.248;20.952;2023-04-07T00:45:32;21.03;;;14.53;;
17283;SDS011;8760;52.248;20.952;2023-04-07T00:47:59;21.13;;;13.30;;
17283;SDS011;8760;52.248;20.952;2023-04-07T00:50:26;19.53;;;13.77;;
17283;SDS011;8760;52.248;20.952;2023-04-07T00:52:53;23.40;;;14.13;;
17283;SDS011;8760;52.248;20.952;2023-04-07T00:55:22;20.10;;;13.97;;
17283;SDS011;8760;52.248;20.952;2023-04-07T00:57:50;22.77;;;13.83;;
17283;SDS011;8760;52.248;20.952;2023-04-07T01:00:17;21.67;;;14.33;;
17283;SDS011;8760;52.248;20.952;2023-04-07T01:02:46;20.10;;;14.50;;
17283;SDS011;8760;52.248;20.952;2023-04-07T01:05:20;19.87;;;14.10;;
17283;SDS011;8760;52.248;20.952;2023-04-07T01:07:52;21.53;;;13.23;;
17283;SDS011;8760;52.248;20.952;2023-04-07T01:10:26;19.33;;;13.73;;
17283;SDS011;8760;52.248;20.952;2023-04-07T01:13:02;19.97;;;14.23;;
17283;SDS011;8760;52.248;20.952;2023-04-07T01:15:33;20.83;;;13.33;;
17283;SDS011;8760;52.248;20.952;2023-04-07T01:18:04;21.77;;;14.03;;
17283;SDS011;8760;52.248;20.952;2023-04-07T01:20:34;22.70;;;14.00;;
17283;SDS011;8760;52.248;20.952;2023-04-07T01:23:03;19.70;;;13.77;;
17283;SDS011;8760;52.248;20.952;2023-04-07T01:25:48;19.30;;;13.87;;
17283;SDS011;8760;52.248;20.952;2023-04-07T01:28:56;21.73;;;14.63;;
17283;SDS011;8760;52.248;20.952;2023-04-07T01:31:44;21.77;;;14.57;;
17283;SDS011;8760;52.248;20.952;2023-04-07T01:34:14;20.07;;;13.90;;
17283;SDS011;8760;52.248;20.952;2023-04-07T01:36:42;21.33;;;14.73;;
17283;SDS011;8760;52.248;20.952;2023-04-07T01:39:10;22.73;;;14.63;;
17283;SDS011;8760;52.248;20.952;2023-04-07T01:41:38;25.07;;;15.10;;
17283;SDS011;8760;52.248;20.952;2023-04-07T01:44:06;25.13;;;15.57;;
17283;SDS011;8760;52.248;20.952;2023-04-07T01:46:34;19.27;;;14.60;;
17283;SDS011;8760;52.248;20.952;2023-04-07T01:49:02;21.53;;;15.57;;
17283;SDS011;8760;52.248;20.952;2023-04-07T01:51:30;21.43;;;14.90;;
17283;SDS011;8760;52.248;20.952;2023-04-07T01:53:58;23.47;;;15.07;;
17283;SDS011;8760;52.248;20.952;2023-04-07T01:56:26;23.33;;;15.90;;
17283;SDS011;8760;52.248;20.952;2023-04-07T01:58:53;23.90;;;15.30;;
17283;SDS011;8760;52.248;20.952;2023-04-07T02:01:21;23.30;;;15.97;;
17283;SDS011;8760;52.248;20.952;2023-04-07T02:03:51;25.73;;;17.30;;
17283;SDS011;8760;52.248;20.952;2023-04-07T02:06:24;26.10;;;17.30;;
17283;SDS011;8760;52.248;20.952;2023-04-07T02:08:58;28.23;;;17.57;;
17283;SDS011;8760;52.248;20.952;2023-04-07T02:11:29;29.00;;;16.87;;
17283;SDS011;8760;52.248;20.952;2023-04-07T02:13:59;27.23;;;17.93;;
17283;SDS011;8760;52.248;20.952;2023-04-07T02:16:29;28.83;;;18.10;;
17283;SDS011;8760;52.248;20.952;2023-04-07T02:18:57;27.70;;;18.33;;
17283;SDS011;8760;52.248;20.952;2023-04-07T02:21:27;27.77;;;18.47;;
17283;SDS011;8760;52.248;20.952;2023-04-07T02:23:55;26.90;;;18.47;;
17283;SDS011;8760;52.248;20.952;2023-04-07T02:26:25;31.47;;;19.23;;
17283;SDS011;8760;52.248;20.952;2023-04-07T02:28:52;27.27;;;17.73;;
17283;SDS011;8760;52.248;20.952;2023-04-07T02:31:19;29.83;;;18.93;;
17283;SDS011;8760;52.248;20.952;2023-04-07T02:33:46;26.83;;;18.90;;
17283;SDS011;8760;52.248;20.952;2023-04-07T02:36:13;30.57;;;19.77;;
17283;SDS011;8760;52.248;20.952;2023-04-07T02:38:41;31.27;;;19.23;;
17283;SDS011;8760;52.248;20.952;2023-04-07T02:41:08;28.97;;;19.10;;
17283;SDS011;8760;52.248;20.952;2023-04-07T02:43:35;29.70;;;19.67;;
17283;SDS011;8760;52.248;20.952;2023-04-07T02:46:02;31.63;;;21.27;;
17283;SDS011;8760;52.248;20.952;2023-04-07T02:48:29;30.63;;;19.93;;
17283;SDS011;8760;52.248;20.952;2023-04-07T02:50:57;32.53;;;21.07;;
17283;SDS011;8760;52.248;20.952;2023-04-07T02:53:24;32.10;;;19.87;;
17283;SDS011;8760;52.248;20.952;2023-04-07T02:55:55;32.10;;;21.00;;
17283;SDS011;8760;52.248;20.952;2023-04-07T02:58:21;34.33;;;21.90;;
17283;SDS011;8760;52.248;20.952;2023-04-07T03:00:48;31.00;;;21.33;;
17283;SDS011;8760;52.248;20.952;2023-04-07T03:03:15;34.80;;;22.53;;
17283;SDS011;8760;52.248;20.952;2023-04-07T03:05:42;33.03;;;21.77;;
17283;SDS011;8760;52.248;20.952;2023-04-07T03:08:09;30.70;;;21.73;;
17283;SDS011;8760;52.248;20.952;2023-04-07T03:10:36;32.67;;;21.17;;
17283;SDS011;8760;52.248;20.952;2023-04-07T03:13:04;34.63;;;22.37;;
17283;SDS011;8760;52.248;20.952;2023-04-07T03:15:32;32.83;;;21.60;;
17283;SDS011;8760;52.248;20.952;2023-04-07T03:17:59;37.30;;;22.77;;
17283;SDS011;8760;52.248;20.952;2023-04-07T03:20:26;33.80;;;21.97;;
17283;SDS011;8760;52.248;20.952;2023-04-07T03:22:53;36.87;;;21.87;;
17283;SDS011;8760;52.248;20.952;2023-04-07T03:25:20;33.53;;;22.50;;
17283;SDS011;8760;52.248;20.952;2023-04-07T03:27:46;35.13;;;22.27;;
17283;SDS011;8760;52.248;20.952;2023-04-07T03:30:15;32.20;;;21.40;;
17283;SDS011;8760;52.248;20.952;2023-04-07T03:32:42;35.97;;;22.27;;
17283;SDS011;8760;52.248;20.952;2023-04-07T03:35:09;31.40;;;21.47;;
17283;SDS011;8760;52.248;20.952;2023-04-07T03:37:36;31.23;;;21.33;;
17283;SDS011;8760;52.248;20.952;2023-04-07T03:40:03;35.07;;;21.70;;
17283;SDS011;8760;52.248;20.952;2023-04-07T03:42:31;33.57;;;22.17;;
17283;SDS011;8760;52.248;20.952;2023-04-07T03:44:58;34.90;;;22.20;;
17283;SDS011;8760;52.248;20.952;2023-04-07T03:47:26;34.57;;;22.93;;
17283;SDS011;8760;52.248;20.952;2023-04-07T03:49:53;36.47;;;23.67;;
17283;SDS011;8760;52.248;20.952;2023-04-07T03:52:20;33.17;;;22.93;;
17283;SDS011;8760;52.248;20.952;2023-04-07T03:54:47;34.83;;;22.50;;
17283;SDS011;8760;52.248;20.952;2023-04-07T03:57:13;38.60;;;24.30;;
17283;SDS011;8760;52.248;20.952;2023-04-07T03:59:40;35.77;;;23.23;;
17283;SDS011;8760;52.248;20.952;2023-04-07T04:02:07;35.50;;;23.10;;
17283;SDS011;8760;52.248;20.952;2023-04-07T04:04:36;33.30;;;22.87;;
17283;SDS011;8760;52.248;20.952;2023-04-07T04:07:02;35.40;;;22.60;;
17283;SDS011;8760;52.248;20.952;2023-04-07T04:09:29;36.53;;;23.80;;
17283;SDS011;8760;52.248;20.952;2023-04-07T04:11:56;33.30;;;23.33;;
17283;SDS011;8760;52.248;20.952;2023-04-07T04:14:23;32.13;;;21.83;;
17283;SDS011;8760;52.248;20.952;2023-04-07T04:16:50;32.17;;;22.57;;
17283;SDS011;8760;52.248;20.952;2023-04-07T04:19:17;31.60;;;22.77;;
17283;SDS011;8760;52.248;20.952;2023-04-07T04:21:45;35.97;;;24.07;;
17283;SDS011;8760;52.248;20.952;2023-04-07T04:24:12;33.63;;;22.13;;
17283;SDS011;8760;52.248;20.952;2023-04-07T04:26:39;33.13;;;22.70;;
17283;SDS011;8760;52.248;20.952;2023-04-07T04:29:06;34.93;;;24.23;;
17283;SDS011;8760;52.248;20.952;2023-04-07T04:31:33;35.47;;;24.00;;
17283;SDS011;8760;52.248;20.952;2023-04-07T04:34:00;36.57;;;25.03;;
17283;SDS011;8760;52.248;20.952;2023-04-07T04:36:27;35.70;;;23.53;;
17283;SDS011;8760;52.248;20.952;2023-04-07T04:38:56;37.03;;;22.73;;
17283;SDS011;8760;52.248;20.952;2023-04-07T04:41:23;32.30;;;23.07;;
17283;SDS011;8760;52.248;20.952;2023-04-07T04:43:50;32.33;;;22.70;;
17283;SDS011;8760;52.248;20.952;2023-04-07T04:46:17;35.27;;;22.80;;
17283;SDS011;8760;52.248;20.952;2023-04-07T04:48:43;32.73;;;22.30;;
17283;SDS011;8760;52.248;20.952;2023-04-07T04:51:10;35.43;;;23.73;;
17283;SDS011;8760;52.248;20.952;2023-04-07T04:53:37;38.07;;;23.67;;
17283;SDS011;8760;52.248;20.952;2023-04-07T04:56:06;33.63;;;23.37;;
17283;SDS011;8760;52.248;20.952;2023-04-07T04:58:33;30.03;;;21.97;;
17283;SDS011;8760;52.248;20.952;2023-04-07T05:01:00;29.37;;;22.03;;
17283;SDS011;8760;52.248;20.952;2023-04-07T05:03:27;31.70;;;22.33;;
17283;SDS011;8760;52.248;20.952;2023-04-07T05:05:54;31.93;;;21.77;;
17283;SDS011;8760;52.248;20.952;2023-04-07T05:08:21;34.67;;;22.80;;
17283;SDS011;8760;52.248;20.952;2023-04-07T05:10:48;34.63;;;23.47;;
17283;SDS011;8760;52.248;20.952;2023-04-07T05:13:16;30.97;;;22.17;;
17283;SDS011;8760;52.248;20.952;2023-04-07T05:15:43;33.67;;;22.43;;
17283;SDS011;8760;52.248;20.952;2023-04-07T05:18:10;32.80;;;22.57;;
17283;SDS011;8760;52.248;20.952;2023-04-07T05:20:37;32.33;;;22.30;;
17283;SDS011;8760;52.248;20.952;2023-04-07T05:23:04;32.60;;;22.13;;
17283;SDS011;8760;52.248;20.952;2023-04-07T05:25:31;34.40;;;24.13;;
17283;SDS011;8760;52.248;20.952;2023-04-07T05:27:58;32.00;;;22.77;;
17283;SDS011;8760;52.248;20.952;2023-04-07T05:30:26;33.60;;;22.30;;
17283;SDS011;8760;52.248;20.952;2023-04-07T05:32:53;33.97;;;23.37;;
17283;SDS011;8760;52.248;20.952;2023-04-07T05:35:20;34.90;;;22.90;;
17283;SDS011;8760;52.248;20.952;2023-04-07T05:37:48;31.73;;;22.70;;
17283;SDS011;8760;52.248;20.952;2023-04-07T05:40:15;32.00;;;22.27;;
17283;SDS011;8760;52.248;20.952;2023-04-07T05:42:42;32.47;;;22.50;;
17283;SDS011;8760;52.248;20.952;2023-04-07T05:45:09;30.70;;;22.93;;
17283;SDS011;8760;52.248;20.952;2023-04-07T05:47:37;31.83;;;22.60;;
17283;SDS011;8760;52.248;20.952;2023-04-07T05:50:05;28.23;;;22.00;;
17283;SDS011;8760;52.248;20.952;2023-04-07T05:52:32;28.47;;;20.30;;
17283;SDS011;8760;52.248;20.952;2023-04-07T05:54:59;28.43;;;21.60;;
17283;SDS011;8760;52.248;20.952;2023-04-07T05:57:26;28.80;;;20.80;;
17283;SDS011;8760;52.248;20.952;2023-04-07T05:59:53;34.53;;;22.07;;
17283;SDS011;8760;52.248;20.952;2023-04-07T06:02:20;30.40;;;21.73;;
17283;SDS011;8760;52.248;20.952;2023-04-07T06:04:49;31.10;;;21.27;;
17283;SDS011;8760;52.248;20.952;2023-04-07T06:07:15;36.77;;;27.30;;
17283;SDS011;8760;52.248;20.952;2023-04-07T06:09:42;31.17;;;22.67;;
17283;SDS011;8760;52.248;20.952;2023-04-07T06:12:09;33.13;;;22.03;;
17283;SDS011;8760;52.248;20.952;2023-04-07T06:14:37;29.37;;;21.03;;
17283;SDS011;8760;52.248;20.952;2023-04-07T06:17:04;29.47;;;20.57;;
17283;SDS011;8760;52.248;20.952;2023-04-07T06:19:31;32.57;;;20.50;;
17283;SDS011;8760;52.248;20.952;2023-04-07T06:21:59;25.30;;;18.83;;
17283;SDS011;8760;52.248;20.952;2023-04-07T06:24:26;25.77;;;19.20;;
17283;SDS011;8760;52.248;20.952;2023-04-07T06:26:53;27.40;;;20.43;;
17283;SDS011;8760;52.248;20.952;2023-04-07T06:29:20;27.50;;;20.30;;
17283;SDS011;8760;52.248;20.952;2023-04-07T06:31:47;26.50;;;20.27;;
17283;SDS011;8760;52.248;20.952;2023-04-07T06:34:14;29.33;;;21.23;;
17283;SDS011;8760;52.248;20.952;2023-04-07T06:36:41;27.27;;;20.47;;
17283;SDS011;8760;52.248;20.952;2023-04-07T06:39:10;28.27;;;19.70;;
17283;SDS011;8760;52.248;20.952;2023-04-07T06:41:37;26.40;;;19.33;;
17283;SDS011;8760;52.248;20.952;2023-04-07T06:44:07;28.37;;;20.33;;
17283;SDS011;8760;52.248;20.952;2023-04-07T06:46:34;25.97;;;19.97;;
17283;SDS011;8760;52.248;20.952;2023-04-07T06:49:01;25.60;;;19.87;;
17283;SDS011;8760;52.248;20.952;2023-04-07T06:51:29;25.20;;;19.30;;
17283;SDS011;8760;52.248;20.952;2023-04-07T06:53:56;26.30;;;19.30;;
17283;SDS011;8760;52.248;20.952;2023-04-07T06:56:24;24.67;;;18.50;;
17283;SDS011;8760;52.248;20.952;2023-04-07T06:58:51;26.67;;;19.20;;
17283;SDS011;8760;52.248;20.952;2023-04-07T07:01:18;28.10;;;18.60;;
17283;SDS011;8760;52.248;20.952;2023-04-07T07:03:45;26.63;;;19.70;;
17283;SDS011;8760;52.248;20.952;2023-04-07T07:06:12;29.00;;;19.80;;
17283;SDS011;8760;52.248;20.952;2023-04-07T07:08:39;24.30;;;18.23;;
17283;SDS011;8760;52.248;20.952;2023-04-07T07:11:06;25.00;;;18.57;;
17283;SDS011;8760;52.248;20.952;2023-04-07T07:13:34;24.07;;;17.87;;
17283;SDS011;8760;52.248;20.952;2023-04-07T07:16:01;36.80;;;19.70;;
17283;SDS011;8760;52.248;20.952;2023-04-07T07:18:28;28.23;;;18.17;;
17283;SDS011;8760;52.248;20.952;2023-04-07T07:20:55;24.00;;;18.00;;
17283;SDS011;8760;52.248;20.952;2023-04-07T07:23:26;24.47;;;17.70;;
17283;SDS011;8760;52.248;20.952;2023-04-07T07:25:53;22.37;;;17.40;;
17283;SDS011;8760;52.248;20.952;2023-04-07T07:28:19;24.93;;;18.07;;
17283;SDS011;8760;52.248;20.952;2023-04-07T07:30:49;24.43;;;17.40;;
17283;SDS011;8760;52.248;20.952;2023-04-07T07:33:15;24.20;;;17.13;;
17283;SDS011;8760;52.248;20.952;2023-04-07T07:35:42;20.80;;;16.53;;
17283;SDS011;8760;52.248;20.952;2023-04-07T07:38:09;26.50;;;18.50;;
17283;SDS011;8760;52.248;20.952;2023-04-07T07:40:38;26.33;;;18.13;;
17283;SDS011;8760;52.248;20.952;2023-04-07T07:43:05;23.80;;;17.90;;
17283;SDS011;8760;52.248;20.952;2023-04-07T07:45:32;23.33;;;16.73;;
17283;SDS011;8760;52.248;20.952;2023-04-07T07:48:00;21.63;;;17.00;;
17283;SDS011;8760;52.248;20.952;2023-04-07T07:50:27;23.23;;;17.10;;
17283;SDS011;8760;52.248;20.952;2023-04-07T07:52:54;26.37;;;17.20;;
17283;SDS011;8760;52.248;20.952;2023-04-07T07:55:21;22.87;;;17.60;;
17283;SDS011;8760;52.248;20.952;2023-04-07T07:57:48;25.73;;;17.10;;
17283;SDS011;8760;52.248;20.952;2023-04-07T08:00:15;21.50;;;17.03;;
17283;SDS011;8760;52.248;20.952;2023-04-07T08:02:42;22.50;;;16.60;;
17283;SDS011;8760;52.248;20.952;2023-04-07T08:05:14;22.47;;;15.87;;
17283;SDS011;8760;52.248;20.952;2023-04-07T08:07:41;20.63;;;16.53;;
17283;SDS011;8760;52.248;20.952;2023-04-07T08:10:08;20.57;;;16.77;;
17283;SDS011;8760;52.248;20.952;2023-04-07T08:12:35;22.77;;;15.77;;
17283;SDS011;8760;52.248;20.952;2023-04-07T08:15:02;19.37;;;16.23;;
17283;SDS011;8760;52.248;20.952;2023-04-07T08:17:31;19.03;;;15.73;;
17283;SDS011;8760;52.248;20.952;2023-04-07T08:19:59;20.27;;;15.97;;
17283;SDS011;8760;52.248;20.952;2023-04-07T08:22:27;21.47;;;16.33;;
17283;SDS011;8760;52.248;20.952;2023-04-07T08:24:57;22.30;;;16.30;;
17283;SDS011;8760;52.248;20.952;2023-04-07T08:27:24;18.70;;;15.53;;
17283;SDS011;8760;52.248;20.952;2023-04-07T08:29:57;19.67;;;15.80;;
17283;SDS011;8760;52.248;20.952;2023-04-07T08:32:24;23.20;;;15.10;;
17283;SDS011;8760;52.248;20.952;2023-04-07T08:34:58;18.17;;;14.83;;
17283;SDS011;8760;52.248;20.952;2023-04-07T08:37:28;19.97;;;14.30;;
17283;SDS011;8760;52.248;20.952;2023-04-07T08:39:56;18.80;;;13.87;;
17283;SDS011;8760;52.248;20.952;2023-04-07T08:42:25;17.50;;;13.70;;
17283;SDS011;8760;52.248;20.952;2023-04-07T08:44:54;20.13;;;13.80;;
17283;SDS011;8760;52.248;20.952;2023-04-07T08:47:22;16.07;;;12.53;;
17283;SDS011;8760;52.248;20.952;2023-04-07T08:49:51;18.03;;;13.10;;
17283;SDS011;8760;52.248;20.952;2023-04-07T08:52:21;16.47;;;13.63;;
17283;SDS011;8760;52.248;20.952;2023-04-07T08:54:50;17.23;;;12.53;;
17283;SDS011;8760;52.248;20.952;2023-04-07T08:57:17;17.50;;;12.67;;
17283;SDS011;8760;52.248;20.952;2023-04-07T08:59:44;18.87;;;12.20;;
17283;SDS011;8760;52.248;20.952;2023-04-07T09:02:15;18.90;;;12.27;;
17283;SDS011;8760;52.248;20.952;2023-04-07T09:04:43;22.50;;;13.87;;
17283;SDS011;8760;52.248;20.952;2023-04-07T09:07:11;18.40;;;13.37;;
17283;SDS011;8760;52.248;20.952;2023-04-07T09:09:37;14.43;;;12.87;;
17283;SDS011;8760;52.248;20.952;2023-04-07T09:12:06;16.63;;;13.03;;
17283;SDS011;8760;52.248;20.952;2023-04-07T09:14:33;18.13;;;13.10;;
17283;SDS011;8760;52.248;20.952;2023-04-07T09:17:00;14.77;;;12.13;;
17283;SDS011;8760;52.248;20.952;2023-04-07T09:19:27;16.63;;;12.60;;
17283;SDS011;8760;52.248;20.952;2023-04-07T09:21:54;16.97;;;12.23;;
17283;SDS011;8760;52.248;20.952;2023-04-07T09:24:22;18.77;;;12.47;;
17283;SDS011;8760;52.248;20.952;2023-04-07T09:26:51;15.67;;;11.80;;
17283;SDS011;8760;52.248;20.952;2023-04-07T09:29:39;17.53;;;12.37;;
17283;SDS011;8760;52.248;20.952;2023-04-07T09:32:07;16.07;;;12.20;;
17283;SDS011;8760;52.248;20.952;2023-04-07T09:34:36;17.33;;;12.53;;
17283;SDS011;8760;52.248;20.952;2023-04-07T09:37:04;17.07;;;13.17;;
17283;SDS011;8760;52.248;20.952;2023-04-07T09:39:33;16.30;;;13.27;;
17283;SDS011;8760;52.248;20.952;2023-04-07T09:42:16;19.20;;;12.57;;
17283;SDS011;8760;52.248;20.952;2023-04-07T09:44:42;16.27;;;13.10;;
17283;SDS011;8760;52.248;20.952;2023-04-07T09:47:10;15.40;;;12.13;;
17283;SDS011;8760;52.248;20.952;2023-04-07T09:49:47;15.27;;;12.27;;
17283;SDS011;8760;52.248;20.952;2023-04-07T09:52:16;24.53;;;13.70;;
17283;SDS011;8760;52.248;20.952;2023-04-07T09:54:44;17.67;;;13.43;;
17283;SDS011;8760;52.248;20.952;2023-04-07T09:57:12;20.03;;;14.47;;
17283;SDS011;8760;52.248;20.952;2023-04-07T09:59:43;19.07;;;14.03;;
17283;SDS011;8760;52.248;20.952;2023-04-07T10:02:11;17.20;;;12.87;;
17283;SDS011;8760;52.248;20.952;2023-04-07T10:04:38;16.60;;;13.10;;
17283;SDS011;8760;52.248;20.952;2023-04-07T10:07:05;18.43;;;13.10;;
17283;SDS011;8760;52.248;20.952;2023-04-07T10:09:32;19.00;;;13.90;;
17283;SDS011;8760;52.248;20.952;2023-04-07T10:12:00;16.90;;;13.23;;
17283;SDS011;8760;52.248;20.952;2023-04-07T10:14:29;18.93;;;14.07;;
17283;SDS011;8760;52.248;20.952;2023-04-07T10:16:58;18.93;;;13.77;;
17283;SDS011;8760;52.248;20.952;2023-04-07T10:19:28;16.70;;;13.60;;
17283;SDS011;8760;52.248;20.952;2023-04-07T10:21:56;17.90;;;13.03;;
17283;SDS011;8760;52.248;20.952;2023-04-07T10:27:13;15.60;;;12.10;;
17283;SDS011;8760;52.248;20.952;2023-04-07T10:29:45;13.90;;;12.07;;
17283;SDS011;8760;52.248;20.952;2023-04-07T10:32:16;16.13;;;12.13;;
17283;SDS011;8760;52.248;20.952;2023-04-07T10:37:25;15.07;;;11.33;;
17283;SDS011;8760;52.248;20.952;2023-04-07T10:42:54;13.93;;;11.87;;
17283;SDS011;8760;52.248;20.952;2023-04-07T10:48:26;15.53;;;12.00;;
17283;SDS011;8760;52.248;20.952;2023-04-07T10:59:36;13.70;;;11.87;;
17283;SDS011;8760;52.248;20.952;2023-04-07T11:05:06;16.30;;;12.40;;
17283;SDS011;8760;52.248;20.952;2023-04-07T11:07:43;15.13;;;11.63;;
17283;SDS011;8760;52.248;20.952;2023-04-07T11:10:13;17.03;;;12.27;;
17283;SDS011;8760;52.248;20.952;2023-04-07T11:12:41;16.40;;;12.43;;
17283;SDS011;8760;52.248;20.952;2023-04-07T11:15:18;14.57;;;11.37;;
17283;SDS011;8760;52.248;20.952;2023-04-07T11:20:40;13.60;;;11.20;;
17283;SDS011;8760;52.248;20.952;2023-04-07T11:23:18;12.07;;;10.57;;
17283;SDS011;8760;52.248;20.952;2023-04-07T11:25:48;12.77;;;10.70;;
17283;SDS011;8760;52.248;20.952;2023-04-07T11:28:16;13.73;;;10.17;;
17283;SDS011;8760;52.248;20.952;2023-04-07T11:30:44;13.73;;;9.97;;
17283;SDS011;8760;52.248;20.952;2023-04-07T11:33:13;14.90;;;10.63;;
17283;SDS011;8760;52.248;20.952;2023-04-07T11:35:53;14.07;;;9.80;;
17283;SDS011;8760;52.248;20.952;2023-04-07T11:38:23;14.90;;;10.70;;
17283;SDS011;8760;52.248;20.952;2023-04-07T11:40:51;13.83;;;9.87;;
17283;SDS011;8760;52.248;20.952;2023-04-07T11:43:19;11.60;;;10.40;;
17283;SDS011;8760;52.248;20.952;2023-04-07T11:46:03;15.40;;;11.10;;
17283;SDS011;8760;52.248;20.952;2023-04-07T11:48:32;16.10;;;10.50;;
17283;SDS011;8760;52.248;20.952;2023-04-07T11:51:01;17.47;;;11.50;;
17283;SDS011;8760;52.248;20.952;2023-04-07T11:53:31;13.23;;;10.83;;
17283;SDS011;8760;52.248;20.952;2023-04-07T11:56:03;13.37;;;10.77;;
17283;SDS011;8760;52.248;20.952;2023-04-07T11:58:31;17.57;;;11.47;;
17283;SDS011;8760;52.248;20.952;2023-04-07T12:00:59;13.03;;;11.43;;
17283;SDS011;8760;52.248;20.952;2023-04-07T12:03:30;14.50;;;11.53;;
17283;SDS011;8760;52.248;20.952;2023-04-07T12:05:58;16.73;;;11.77;;
17283;SDS011;8760;52.248;20.952;2023-04-07T12:08:39;15.50;;;13.43;;
17283;SDS011;8760;52.248;20.952;2023-04-07T12:11:07;18.20;;;13.27;;
17283;SDS011;8760;52.248;20.952;2023-04-07T12:13:34;17.00;;;13.00;;
17283;SDS011;8760;52.248;20.952;2023-04-07T12:16:02;16.77;;;14.53;;
17283;SDS011;8760;52.248;20.952;2023-04-07T12:18:29;19.87;;;14.33;;
17283;SDS011;8760;52.248;20.952;2023-04-07T12:20:57;14.97;;;12.40;;
17283;SDS011;8760;52.248;20.952;2023-04-07T12:23:24;17.97;;;13.97;;
17283;SDS011;8760;52.248;20.952;2023-04-07T12:25:52;17.20;;;13.10;;
17283;SDS011;8760;52.248;20.952;2023-04-07T12:28:22;18.90;;;13.13;;
17283;SDS011;8760;52.248;20.952;2023-04-07T12:30:49;18.30;;;13.73;;
17283;SDS011;8760;52.248;20.952;2023-04-07T12:33:16;16.17;;;13.27;;
17283;SDS011;8760;52.248;20.952;2023-04-07T12:35:43;14.03;;;12.53;;
17283;SDS011;8760;52.248;20.952;2023-04-07T12:38:10;15.17;;;12.03;;
17283;SDS011;8760;52.248;20.952;2023-04-07T12:40:37;14.20;;;12.47;;
17283;SDS011;8760;52.248;20.952;2023-04-07T12:43:05;17.23;;;12.83;;
17283;SDS011;8760;52.248;20.952;2023-04-07T12:45:32;17.97;;;12.60;;
17283;SDS011;8760;52.248;20.952;2023-04-07T12:47:59;18.17;;;14.17;;
17283;SDS011;8760;52.248;20.952;2023-04-07T12:50:26;18.07;;;12.97;;
17283;SDS011;8760;52.248;20.952;2023-04-07T12:52:54;17.30;;;13.13;;
17283;SDS011;8760;52.248;20.952;2023-04-07T12:55:23;17.03;;;12.73;;
17283;SDS011;8760;52.248;20.952;2023-04-07T12:57:50;15.33;;;11.60;;
17283;SDS011;8760;52.248;20.952;2023-04-07T13:00:18;12.30;;;10.30;;
17283;SDS011;8760;52.248;20.952;2023-04-07T13:02:45;15.87;;;12.03;;
17283;SDS011;8760;52.248;20.952;2023-04-07T13:05:12;12.87;;;10.37;;
17283;SDS011;8760;52.248;20.952;2023-04-07T13:07:39;9.60;;;8.20;;
17283;SDS011;8760;52.248;20.952;2023-04-07T13:10:06;6.30;;;5.20;;
17283;SDS011;8760;52.248;20.952;2023-04-07T13:12:34;6.80;;;5.50;;
17283;SDS011;8760;52.248;20.952;2023-04-07T13:15:01;6.87;;;5.63;;
17283;SDS011;8760;52.248;20.952;2023-04-07T13:17:30;5.00;;;4.17;;
17283;SDS011;8760;52.248;20.952;2023-04-07T13:19:57;6.87;;;3.97;;
17283;SDS011;8760;52.248;20.952;2023-04-07T13:22:23;5.40;;;4.63;;
17283;SDS011;8760;52.248;20.952;2023-04-07T13:24:50;5.13;;;4.60;;
17283;SDS011;8760;52.248;20.952;2023-04-07T13:27:17;5.30;;;4.70;;
17283;SDS011;8760;52.248;20.952;2023-04-07T13:29:45;6.27;;;4.77;;
17283;SDS011;8760;52.248;20.952;2023-04-07T13:32:12;4.17;;;3.27;;
17283;SDS011;8760;52.248;20.952;2023-04-07T13:34:42;4.47;;;3.50;;
17283;SDS011;8760;52.248;20.952;2023-04-07T13:37:09;3.90;;;3.20;;
17283;SDS011;8760;52.248;20.952;2023-04-07T13:39:36;3.30;;;2.90;;
17283;SDS011;8760;52.248;20.952;2023-04-07T13:42:03;3.33;;;2.60;;
17283;SDS011;8760;52.248;20.952;2023-04-07T13:44:31;4.80;;;2.67;;
17283;SDS011;8760;52.248;20.952;2023-04-07T13:47:01;3.00;;;2.70;;
17283;SDS011;8760;52.248;20.952;2023-04-07T13:49:28;4.23;;;2.73;;
17283;SDS011;8760;52.248;20.952;2023-04-07T13:51:56;5.83;;;2.57;;
17283;SDS011;8760;52.248;20.952;2023-04-07T13:54:23;2.93;;;2.63;;
17283;SDS011;8760;52.248;20.952;2023-04-07T13:56:50;7.27;;;2.83;;
17283;SDS011;8760;52.248;20.952;2023-04-07T13:59:18;3.53;;;3.23;;
17283;SDS011;8760;52.248;20.952;2023-04-07T14:01:45;5.23;;;3.50;;
17283;SDS011;8760;52.248;20.952;2023-04-07T14:04:12;4.10;;;3.33;;
17283;SDS011;8760;52.248;20.952;2023-04-07T14:06:39;4.50;;;3.60;;
17283;SDS011;8760;52.248;20.952;2023-04-07T14:09:08;5.10;;;3.10;;
17283;SDS011;8760;52.248;20.952;2023-04-07T14:11:35;4.37;;;3.57;;
17283;SDS011;8760;52.248;20.952;2023-04-07T14:14:02;4.20;;;3.10;;
17283;SDS011;8760;52.248;20.952;2023-04-07T14:16:30;3.10;;;2.80;;
17283;SDS011;8760;52.248;20.952;2023-04-07T14:18:57;3.63;;;3.13;;
17283;SDS011;8760;52.248;20.952;2023-04-07T14:21:24;4.97;;;3.70;;
17283;SDS011;8760;52.248;20.952;2023-04-07T14:23:52;3.77;;;3.40;;
17283;SDS011;8760;52.248;20.952;2023-04-07T14:26:20;4.33;;;3.50;;
17283;SDS011;8760;52.248;20.952;2023-04-07T14:28:47;3.30;;;3.00;;
17283;SDS011;8760;52.248;20.952;2023-04-07T14:31:14;5.87;;;4.40;;
17283;SDS011;8760;52.248;20.952;2023-04-07T14:33:41;4.70;;;3.23;;
17283;SDS011;8760;52.248;20.952;2023-04-07T14:36:09;4.33;;;3.30;;
17283;SDS011;8760;52.248;20.952;2023-04-07T14:38:35;3.57;;;2.87;;
17283;SDS011;8760;52.248;20.952;2023-04-07T14:41:02;5.63;;;3.53;;
17283;SDS011;8760;52.248;20.952;2023-04-07T14:43:31;4.57;;;2.90;;
17283;SDS011;8760;52.248;20.952;2023-04-07T14:45:58;3.43;;;2.80;;
17283;SDS011;8760;52.248;20.952;2023-04-07T14:48:24;4.10;;;2.77;;
17283;SDS011;8760;52.248;20.952;2023-04-07T14:50:52;4.07;;;2.40;;
17283;SDS011;8760;52.248;20.952;2023-04-07T14:53:19;4.93;;;2.83;;
17283;SDS011;8760;52.248;20.952;2023-04-07T14:55:46;3.37;;;2.60;;
17283;SDS011;8760;52.248;20.952;2023-04-07T14:58:13;3.10;;;2.37;;